sensor_id;sensor_type;location;lat;lon;timestamp;P1;durP1;ratioP1;P2;durP2;ratioP2
13868;SDS011;7004;48.206;16.402;2023-02-28T00:01:25;16.57;;;8.70;;
13868;SDS011;7004;48.206;16.402;2023-02-28T00:03:52;16.10;;;9.60;;
13868;SDS011;7004;48.206;16.402;2023-02-28T00:06:18;15.57;;;9.57;;
13868;SDS011;7004;48.206;16.402;2023-02-28T00:08:46;14.20;;;9.03;;
13868;SDS011;7004;48.206;16.402;2023-02-28T00:11:12;13.57;;;9.17;;
13868;SDS011;7004;48.206;16.402;2023-02-28T00:13:41;14.90;;;9.97;;
13868;SDS011;7004;48.206;16.402;2023-02-28T00:16:13;13.93;;;9.30;;
13868;SDS011;7004;48.206;16.402;2023-02-28T00:18:44;16.77;;;10.37;;
13868;SDS011;7004;48.206;16.402;2023-02-28T00:21:12;16.57;;;9.53;;
13868;SDS011;7004;48.206;16.402;2023-02-28T00:23:39;15.87;;;9.77;;
13868;SDS011;7004;48.206;16.402;2023-02-28T00:26:06;15.77;;;9.80;;
13868;SDS011;7004;48.206;16.402;2023-02-28T00:28:32;19.00;;;10.47;;
13868;SDS011;7004;48.206;16.402;2023-02-28T00:30:59;15.10;;;10.10;;
13868;SDS011;7004;48.206;16.402;2023-02-28T00:33:25;20.23;;;10.10;;
13868;SDS011;7004;48.206;16.402;2023-02-28T00:36:00;15.50;;;10.07;;
13868;SDS011;7004;48.206;16.402;2023-02-28T00:38:33;14.93;;;9.63;;
13868;SDS011;7004;48.206;16.402;2023-02-28T00:40:59;16.43;;;9.87;;
13868;SDS011;7004;48.206;16.402;2023-02-28T00:43:30;16.43;;;10.30;;
13868;SDS011;7004;48.206;16.402;2023-02-28T00:45:57;15.20;;;10.50;;
13868;SDS011;7004;48.206;16.402;2023-02-28T00:48:24;15.67;;;10.10;;
13868;SDS011;7004;48.206;16.402;2023-02-28T00:50:50;15.23;;;10.33;;
13868;SDS011;7004;48.206;16.402;2023-02-28T00:53:16;16.80;;;10.57;;
13868;SDS011;7004;48.206;16.402;2023-02-28T00:55:42;17.67;;;10.40;;
13868;SDS011;7004;48.206;16.402;2023-02-28T00:58:09;17.53;;;10.27;;
13868;SDS011;7004;48.206;16.402;2023-02-28T01:00:35;17.70;;;10.37;;
13868;SDS011;7004;48.206;16.402;2023-02-28T01:03:01;18.63;;;11.23;;
13868;SDS011;7004;48.206;16.402;2023-02-28T01:05:27;17.43;;;10.27;;
13868;SDS011;7004;48.206;16.402;2023-02-28T01:07:53;16.53;;;10.73;;
13868;SDS011;7004;48.206;16.402;2023-02-28T01:10:19;16.87;;;10.73;;
13868;SDS011;7004;48.206;16.402;2023-02-28T01:12:46;20.70;;;11.60;;
13868;SDS011;7004;48.206;16.402;2023-02-28T01:15:12;16.90;;;10.50;;
13868;SDS011;7004;48.206;16.402;2023-02-28T01:17:38;17.63;;;11.20;;
13868;SDS011;7004;48.206;16.402;2023-02-28T01:20:04;19.53;;;10.67;;
13868;SDS011;7004;48.206;16.402;2023-02-28T01:22:31;17.60;;;11.00;;
13868;SDS011;7004;48.206;16.402;2023-02-28T01:24:57;16.40;;;10.87;;
13868;SDS011;7004;48.206;16.402;2023-02-28T01:27:23;17.07;;;10.87;;
13868;SDS011;7004;48.206;16.402;2023-02-28T01:29:50;17.43;;;10.90;;
13868;SDS011;7004;48.206;16.402;2023-02-28T01:32:16;18.03;;;10.90;;
13868;SDS011;7004;48.206;16.402;2023-02-28T01:34:42;16.53;;;10.63;;
13868;SDS011;7004;48.206;16.402;2023-02-28T01:37:08;17.10;;;11.00;;
13868;SDS011;7004;48.206;16.402;2023-02-28T01:39:34;15.10;;;10.50;;
13868;SDS011;7004;48.206;16.402;2023-02-28T01:42:00;16.23;;;10.73;;
13868;SDS011;7004;48.206;16.402;2023-02-28T01:48:09;18.87;;;11.10;;
13868;SDS011;7004;48.206;16.402;2023-02-28T01:50:36;20.90;;;11.43;;
13868;SDS011;7004;48.206;16.402;2023-02-28T01:53:10;16.90;;;11.20;;
13868;SDS011;7004;48.206;16.402;2023-02-28T01:55:41;15.43;;;10.63;;
13868;SDS011;7004;48.206;16.402;2023-02-28T01:58:12;18.47;;;11.53;;
13868;SDS011;7004;48.206;16.402;2023-02-28T02:00:38;16.20;;;10.63;;
13868;SDS011;7004;48.206;16.402;2023-02-28T02:03:08;20.03;;;10.70;;
13868;SDS011;7004;48.206;16.402;2023-02-28T02:05:38;17.97;;;11.10;;
13868;SDS011;7004;48.206;16.402;2023-02-28T02:08:10;17.40;;;11.43;;
13868;SDS011;7004;48.206;16.402;2023-02-28T02:10:45;18.13;;;11.10;;
13868;SDS011;7004;48.206;16.402;2023-02-28T02:32:15;16.50;;;11.40;;
13868;SDS011;7004;48.206;16.402;2023-02-28T02:41:26;19.50;;;11.57;;
13868;SDS011;7004;48.206;16.402;2023-02-28T02:44:36;18.50;;;11.30;;
13868;SDS011;7004;48.206;16.402;2023-02-28T02:47:16;19.60;;;11.83;;
13868;SDS011;7004;48.206;16.402;2023-02-28T02:49:50;15.07;;;10.17;;
13868;SDS011;7004;48.206;16.402;2023-02-28T02:52:20;19.13;;;12.40;;
13868;SDS011;7004;48.206;16.402;2023-02-28T02:54:54;18.80;;;11.20;;
13868;SDS011;7004;48.206;16.402;2023-02-28T03:00:26;21.47;;;11.17;;
13868;SDS011;7004;48.206;16.402;2023-02-28T03:02:59;16.87;;;10.90;;
13868;SDS011;7004;48.206;16.402;2023-02-28T03:05:33;17.80;;;11.33;;
13868;SDS011;7004;48.206;16.402;2023-02-28T03:08:17;16.37;;;10.93;;
13868;SDS011;7004;48.206;16.402;2023-02-28T03:10:44;18.17;;;11.30;;
13868;SDS011;7004;48.206;16.402;2023-02-28T03:16:32;17.20;;;10.60;;
13868;SDS011;7004;48.206;16.402;2023-02-28T03:22:26;17.23;;;10.90;;
13868;SDS011;7004;48.206;16.402;2023-02-28T03:28:19;17.23;;;11.03;;
13868;SDS011;7004;48.206;16.402;2023-02-28T03:33:50;17.97;;;10.50;;
13868;SDS011;7004;48.206;16.402;2023-02-28T03:36:30;18.67;;;11.57;;
13868;SDS011;7004;48.206;16.402;2023-02-28T03:39:11;18.83;;;11.70;;
13868;SDS011;7004;48.206;16.402;2023-02-28T03:42:08;16.17;;;10.40;;
13868;SDS011;7004;48.206;16.402;2023-02-28T03:50:34;23.27;;;11.67;;
13868;SDS011;7004;48.206;16.402;2023-02-28T03:53:06;17.93;;;10.97;;
13868;SDS011;7004;48.206;16.402;2023-02-28T03:55:58;18.23;;;11.43;;
13868;SDS011;7004;48.206;16.402;2023-02-28T03:59:22;16.40;;;11.03;;
13868;SDS011;7004;48.206;16.402;2023-02-28T04:07:50;14.63;;;10.30;;
13868;SDS011;7004;48.206;16.402;2023-02-28T04:10:17;16.47;;;11.40;;
13868;SDS011;7004;48.206;16.402;2023-02-28T04:12:43;17.90;;;11.27;;
13868;SDS011;7004;48.206;16.402;2023-02-28T04:15:09;17.93;;;11.70;;
13868;SDS011;7004;48.206;16.402;2023-02-28T04:17:36;20.83;;;11.10;;
13868;SDS011;7004;48.206;16.402;2023-02-28T04:20:03;18.50;;;11.17;;
13868;SDS011;7004;48.206;16.402;2023-02-28T04:22:34;18.40;;;11.17;;
13868;SDS011;7004;48.206;16.402;2023-02-28T04:25:01;17.17;;;11.10;;
13868;SDS011;7004;48.206;16.402;2023-02-28T04:27:27;16.90;;;11.43;;
13868;SDS011;7004;48.206;16.402;2023-02-28T04:29:54;17.33;;;11.20;;
13868;SDS011;7004;48.206;16.402;2023-02-28T04:32:20;16.70;;;11.53;;
13868;SDS011;7004;48.206;16.402;2023-02-28T04:34:46;19.57;;;11.97;;
13868;SDS011;7004;48.206;16.402;2023-02-28T04:37:12;16.43;;;11.43;;
13868;SDS011;7004;48.206;16.402;2023-02-28T04:39:39;21.27;;;11.07;;
13868;SDS011;7004;48.206;16.402;2023-02-28T04:42:07;17.67;;;10.90;;
13868;SDS011;7004;48.206;16.402;2023-02-28T04:44:35;21.53;;;12.80;;
13868;SDS011;7004;48.206;16.402;2023-02-28T04:47:01;19.93;;;12.33;;
13868;SDS011;7004;48.206;16.402;2023-02-28T04:49:28;20.13;;;11.93;;
13868;SDS011;7004;48.206;16.402;2023-02-28T04:51:54;18.47;;;11.70;;
13868;SDS011;7004;48.206;16.402;2023-02-28T04:54:21;18.67;;;11.60;;
13868;SDS011;7004;48.206;16.402;2023-02-28T04:56:47;18.43;;;11.83;;
13868;SDS011;7004;48.206;16.402;2023-02-28T04:59:15;18.70;;;12.13;;
13868;SDS011;7004;48.206;16.402;2023-02-28T05:01:44;20.80;;;12.07;;
13868;SDS011;7004;48.206;16.402;2023-02-28T05:04:13;18.83;;;11.47;;
13868;SDS011;7004;48.206;16.402;2023-02-28T05:06:39;17.80;;;11.67;;
13868;SDS011;7004;48.206;16.402;2023-02-28T05:09:06;18.30;;;12.47;;
13868;SDS011;7004;48.206;16.402;2023-02-28T05:11:32;19.73;;;11.70;;
13868;SDS011;7004;48.206;16.402;2023-02-28T05:14:00;19.63;;;12.07;;
13868;SDS011;7004;48.206;16.402;2023-02-28T05:16:29;19.77;;;11.87;;
13868;SDS011;7004;48.206;16.402;2023-02-28T05:18:56;21.90;;;12.50;;
13868;SDS011;7004;48.206;16.402;2023-02-28T05:21:27;21.90;;;12.03;;
13868;SDS011;7004;48.206;16.402;2023-02-28T05:23:55;20.47;;;11.70;;
13868;SDS011;7004;48.206;16.402;2023-02-28T05:26:28;19.23;;;11.60;;
13868;SDS011;7004;48.206;16.402;2023-02-28T05:28:55;19.83;;;12.43;;
13868;SDS011;7004;48.206;16.402;2023-02-28T05:31:21;18.10;;;12.03;;
13868;SDS011;7004;48.206;16.402;2023-02-28T05:33:48;15.50;;;11.77;;
13868;SDS011;7004;48.206;16.402;2023-02-28T05:36:14;20.57;;;12.23;;
13868;SDS011;7004;48.206;16.402;2023-02-28T05:38:40;19.57;;;11.07;;
13868;SDS011;7004;48.206;16.402;2023-02-28T05:41:07;20.57;;;11.80;;
13868;SDS011;7004;48.206;16.402;2023-02-28T05:43:35;19.20;;;11.97;;
13868;SDS011;7004;48.206;16.402;2023-02-28T05:46:05;19.40;;;12.27;;
13868;SDS011;7004;48.206;16.402;2023-02-28T05:48:34;18.37;;;11.37;;
13868;SDS011;7004;48.206;16.402;2023-02-28T05:51:02;21.43;;;12.40;;
13868;SDS011;7004;48.206;16.402;2023-02-28T05:53:29;22.70;;;12.00;;
13868;SDS011;7004;48.206;16.402;2023-02-28T05:55:56;22.07;;;12.50;;
13868;SDS011;7004;48.206;16.402;2023-02-28T05:58:22;20.00;;;12.20;;
13868;SDS011;7004;48.206;16.402;2023-02-28T06:00:54;19.80;;;12.30;;
13868;SDS011;7004;48.206;16.402;2023-02-28T06:03:20;22.47;;;12.80;;
13868;SDS011;7004;48.206;16.402;2023-02-28T06:05:46;19.53;;;12.77;;
13868;SDS011;7004;48.206;16.402;2023-02-28T06:08:12;25.43;;;12.93;;
13868;SDS011;7004;48.206;16.402;2023-02-28T06:10:38;20.33;;;12.93;;
13868;SDS011;7004;48.206;16.402;2023-02-28T06:13:04;20.07;;;12.33;;
13868;SDS011;7004;48.206;16.402;2023-02-28T06:15:31;21.83;;;12.60;;
13868;SDS011;7004;48.206;16.402;2023-02-28T06:17:57;22.00;;;12.80;;
13868;SDS011;7004;48.206;16.402;2023-02-28T06:20:24;20.30;;;12.83;;
13868;SDS011;7004;48.206;16.402;2023-02-28T06:22:57;17.97;;;12.30;;
13868;SDS011;7004;48.206;16.402;2023-02-28T06:25:24;18.83;;;12.77;;
13868;SDS011;7004;48.206;16.402;2023-02-28T06:27:53;19.97;;;12.77;;
13868;SDS011;7004;48.206;16.402;2023-02-28T06:30:19;22.50;;;13.23;;
13868;SDS011;7004;48.206;16.402;2023-02-28T06:32:50;22.03;;;13.17;;
13868;SDS011;7004;48.206;16.402;2023-02-28T06:35:17;25.30;;;13.17;;
13868;SDS011;7004;48.206;16.402;2023-02-28T06:37:43;25.60;;;14.13;;
13868;SDS011;7004;48.206;16.402;2023-02-28T06:40:10;23.50;;;13.83;;
13868;SDS011;7004;48.206;16.402;2023-02-28T06:42:38;22.53;;;13.37;;
13868;SDS011;7004;48.206;16.402;2023-02-28T06:45:04;22.20;;;13.13;;
13868;SDS011;7004;48.206;16.402;2023-02-28T06:47:35;20.13;;;13.43;;
13868;SDS011;7004;48.206;16.402;2023-02-28T06:50:03;21.10;;;13.43;;
13868;SDS011;7004;48.206;16.402;2023-02-28T06:52:30;23.17;;;13.47;;
13868;SDS011;7004;48.206;16.402;2023-02-28T06:54:56;20.30;;;13.70;;
13868;SDS011;7004;48.206;16.402;2023-02-28T06:57:29;23.57;;;13.90;;
13868;SDS011;7004;48.206;16.402;2023-02-28T06:59:59;21.07;;;13.83;;
13868;SDS011;7004;48.206;16.402;2023-02-28T07:02:28;25.40;;;14.17;;
13868;SDS011;7004;48.206;16.402;2023-02-28T07:04:54;21.83;;;13.77;;
13868;SDS011;7004;48.206;16.402;2023-02-28T07:07:20;25.30;;;15.17;;
13868;SDS011;7004;48.206;16.402;2023-02-28T07:09:46;17.10;;;12.23;;
13868;SDS011;7004;48.206;16.402;2023-02-28T07:12:13;20.97;;;13.40;;
13868;SDS011;7004;48.206;16.402;2023-02-28T07:14:39;25.93;;;13.93;;
13868;SDS011;7004;48.206;16.402;2023-02-28T07:17:06;20.30;;;14.13;;
13868;SDS011;7004;48.206;16.402;2023-02-28T07:19:38;20.93;;;13.33;;
13868;SDS011;7004;48.206;16.402;2023-02-28T07:22:04;19.90;;;13.33;;
13868;SDS011;7004;48.206;16.402;2023-02-28T07:24:31;24.10;;;13.87;;
13868;SDS011;7004;48.206;16.402;2023-02-28T07:26:58;25.77;;;13.60;;
13868;SDS011;7004;48.206;16.402;2023-02-28T07:29:24;24.13;;;15.07;;
13868;SDS011;7004;48.206;16.402;2023-02-28T07:31:51;24.73;;;14.93;;
13868;SDS011;7004;48.206;16.402;2023-02-28T07:34:18;21.77;;;13.53;;
13868;SDS011;7004;48.206;16.402;2023-02-28T07:36:46;19.67;;;13.57;;
13868;SDS011;7004;48.206;16.402;2023-02-28T07:39:12;21.57;;;14.90;;
13868;SDS011;7004;48.206;16.402;2023-02-28T07:41:38;20.07;;;13.83;;
13868;SDS011;7004;48.206;16.402;2023-02-28T07:44:11;32.93;;;14.40;;
13868;SDS011;7004;48.206;16.402;2023-02-28T07:46:38;22.63;;;14.73;;
13868;SDS011;7004;48.206;16.402;2023-02-28T07:49:06;24.07;;;15.00;;
13868;SDS011;7004;48.206;16.402;2023-02-28T07:51:32;21.00;;;13.80;;
13868;SDS011;7004;48.206;16.402;2023-02-28T07:53:58;21.10;;;14.73;;
13868;SDS011;7004;48.206;16.402;2023-02-28T07:56:25;21.23;;;15.07;;
13868;SDS011;7004;48.206;16.402;2023-02-28T07:58:51;20.73;;;14.23;;
13868;SDS011;7004;48.206;16.402;2023-02-28T08:01:17;21.17;;;14.77;;
13868;SDS011;7004;48.206;16.402;2023-02-28T08:03:44;25.40;;;14.30;;
13868;SDS011;7004;48.206;16.402;2023-02-28T08:06:16;23.47;;;15.07;;
13868;SDS011;7004;48.206;16.402;2023-02-28T08:08:48;20.20;;;13.70;;
13868;SDS011;7004;48.206;16.402;2023-02-28T08:11:15;30.27;;;14.80;;
13868;SDS011;7004;48.206;16.402;2023-02-28T08:13:43;28.17;;;15.57;;
13868;SDS011;7004;48.206;16.402;2023-02-28T08:16:10;25.43;;;14.90;;
13868;SDS011;7004;48.206;16.402;2023-02-28T08:18:42;26.97;;;15.17;;
13868;SDS011;7004;48.206;16.402;2023-02-28T08:21:09;20.97;;;15.03;;
13868;SDS011;7004;48.206;16.402;2023-02-28T08:23:36;22.20;;;14.37;;
13868;SDS011;7004;48.206;16.402;2023-02-28T08:26:02;21.47;;;14.50;;
13868;SDS011;7004;48.206;16.402;2023-02-28T08:28:29;25.23;;;16.87;;
13868;SDS011;7004;48.206;16.402;2023-02-28T08:30:56;22.87;;;14.87;;
13868;SDS011;7004;48.206;16.402;2023-02-28T08:33:22;20.37;;;14.60;;
13868;SDS011;7004;48.206;16.402;2023-02-28T08:35:52;27.30;;;15.67;;
13868;SDS011;7004;48.206;16.402;2023-02-28T08:38:19;28.63;;;14.87;;
13868;SDS011;7004;48.206;16.402;2023-02-28T08:40:46;19.50;;;14.97;;
13868;SDS011;7004;48.206;16.402;2023-02-28T08:43:12;20.87;;;15.40;;
13868;SDS011;7004;48.206;16.402;2023-02-28T08:45:39;21.20;;;15.00;;
13868;SDS011;7004;48.206;16.402;2023-02-28T08:48:05;26.37;;;16.40;;
13868;SDS011;7004;48.206;16.402;2023-02-28T08:50:33;34.43;;;16.13;;
13868;SDS011;7004;48.206;16.402;2023-02-28T08:52:59;21.90;;;15.47;;
13868;SDS011;7004;48.206;16.402;2023-02-28T08:55:25;22.03;;;14.93;;
13868;SDS011;7004;48.206;16.402;2023-02-28T08:57:51;26.00;;;15.87;;
13868;SDS011;7004;48.206;16.402;2023-02-28T09:00:18;24.73;;;15.67;;
13868;SDS011;7004;48.206;16.402;2023-02-28T09:02:45;21.00;;;14.83;;
13868;SDS011;7004;48.206;16.402;2023-02-28T09:05:11;24.73;;;15.40;;
13868;SDS011;7004;48.206;16.402;2023-02-28T09:07:37;23.03;;;15.00;;
13868;SDS011;7004;48.206;16.402;2023-02-28T09:10:03;21.20;;;15.07;;
13868;SDS011;7004;48.206;16.402;2023-02-28T09:12:32;18.57;;;14.00;;
13868;SDS011;7004;48.206;16.402;2023-02-28T09:15:00;21.30;;;13.60;;
13868;SDS011;7004;48.206;16.402;2023-02-28T09:17:27;18.97;;;13.20;;
13868;SDS011;7004;48.206;16.402;2023-02-28T09:19:53;22.10;;;14.97;;
13868;SDS011;7004;48.206;16.402;2023-02-28T09:22:19;21.70;;;15.10;;
13868;SDS011;7004;48.206;16.402;2023-02-28T09:24:46;20.10;;;14.63;;
13868;SDS011;7004;48.206;16.402;2023-02-28T09:27:12;18.53;;;13.47;;
13868;SDS011;7004;48.206;16.402;2023-02-28T09:29:38;18.37;;;13.00;;
13868;SDS011;7004;48.206;16.402;2023-02-28T09:32:05;18.87;;;13.37;;
13868;SDS011;7004;48.206;16.402;2023-02-28T09:34:33;17.07;;;12.57;;
13868;SDS011;7004;48.206;16.402;2023-02-28T09:36:59;15.80;;;12.50;;
13868;SDS011;7004;48.206;16.402;2023-02-28T09:39:25;18.87;;;14.07;;
13868;SDS011;7004;48.206;16.402;2023-02-28T09:41:52;19.67;;;13.53;;
13868;SDS011;7004;48.206;16.402;2023-02-28T09:44:22;21.00;;;13.80;;
13868;SDS011;7004;48.206;16.402;2023-02-28T09:50:17;19.93;;;15.07;;
13868;SDS011;7004;48.206;16.402;2023-02-28T09:52:51;21.10;;;13.47;;
13868;SDS011;7004;48.206;16.402;2023-02-28T09:57:57;25.50;;;15.73;;
13868;SDS011;7004;48.206;16.402;2023-02-28T10:00:36;24.40;;;16.03;;
13868;SDS011;7004;48.206;16.402;2023-02-28T10:05:53;27.70;;;15.70;;
13868;SDS011;7004;48.206;16.402;2023-02-28T10:08:31;25.40;;;15.73;;
13868;SDS011;7004;48.206;16.402;2023-02-28T10:11:34;21.23;;;14.70;;
13868;SDS011;7004;48.206;16.402;2023-02-28T10:14:10;20.73;;;14.70;;
13868;SDS011;7004;48.206;16.402;2023-02-28T10:17:01;22.97;;;15.53;;
13868;SDS011;7004;48.206;16.402;2023-02-28T10:20:02;21.90;;;14.00;;
13868;SDS011;7004;48.206;16.402;2023-02-28T10:25:34;18.20;;;13.73;;
13868;SDS011;7004;48.206;16.402;2023-02-28T10:28:12;23.33;;;15.17;;
13868;SDS011;7004;48.206;16.402;2023-02-28T10:30:42;20.07;;;13.87;;
13868;SDS011;7004;48.206;16.402;2023-02-28T10:33:17;22.47;;;14.43;;
13868;SDS011;7004;48.206;16.402;2023-02-28T10:35:53;18.83;;;14.80;;
13868;SDS011;7004;48.206;16.402;2023-02-28T10:38:27;20.70;;;14.57;;
13868;SDS011;7004;48.206;16.402;2023-02-28T10:43:38;19.37;;;14.63;;
13868;SDS011;7004;48.206;16.402;2023-02-28T10:48:39;23.13;;;15.90;;
13868;SDS011;7004;48.206;16.402;2023-02-28T10:51:26;22.73;;;15.33;;
13868;SDS011;7004;48.206;16.402;2023-02-28T10:54:03;21.63;;;14.40;;
13868;SDS011;7004;48.206;16.402;2023-02-28T10:56:30;18.00;;;14.57;;
13868;SDS011;7004;48.206;16.402;2023-02-28T10:59:00;18.53;;;14.63;;
13868;SDS011;7004;48.206;16.402;2023-02-28T11:01:44;21.80;;;15.27;;
13868;SDS011;7004;48.206;16.402;2023-02-28T11:09:51;18.63;;;13.37;;
13868;SDS011;7004;48.206;16.402;2023-02-28T11:12:24;19.63;;;14.90;;
13868;SDS011;7004;48.206;16.402;2023-02-28T11:15:03;19.63;;;14.57;;
13868;SDS011;7004;48.206;16.402;2023-02-28T11:17:45;30.03;;;15.20;;
13868;SDS011;7004;48.206;16.402;2023-02-28T11:20:31;19.83;;;14.63;;
13868;SDS011;7004;48.206;16.402;2023-02-28T11:23:00;18.83;;;15.33;;
13868;SDS011;7004;48.206;16.402;2023-02-28T11:25:34;22.07;;;14.20;;
13868;SDS011;7004;48.206;16.402;2023-02-28T11:28:22;17.67;;;13.13;;
13868;SDS011;7004;48.206;16.402;2023-02-28T11:33:45;20.73;;;14.00;;
13868;SDS011;7004;48.206;16.402;2023-02-28T11:36:22;21.57;;;15.23;;
13868;SDS011;7004;48.206;16.402;2023-02-28T11:38:55;18.33;;;14.20;;
13868;SDS011;7004;48.206;16.402;2023-02-28T11:41:42;20.17;;;14.23;;
13868;SDS011;7004;48.206;16.402;2023-02-28T11:47:47;19.07;;;12.97;;
13868;SDS011;7004;48.206;16.402;2023-02-28T11:51:00;16.67;;;12.73;;
13868;SDS011;7004;48.206;16.402;2023-02-28T11:59:23;17.63;;;13.67;;
13868;SDS011;7004;48.206;16.402;2023-02-28T12:02:24;16.50;;;14.00;;
13868;SDS011;7004;48.206;16.402;2023-02-28T12:05:56;17.27;;;13.90;;
13868;SDS011;7004;48.206;16.402;2023-02-28T12:14:21;15.73;;;13.37;;
13868;SDS011;7004;48.206;16.402;2023-02-28T12:23:19;17.33;;;13.03;;
13868;SDS011;7004;48.206;16.402;2023-02-28T12:26:14;14.90;;;12.20;;
13868;SDS011;7004;48.206;16.402;2023-02-28T12:29:17;17.97;;;12.60;;
13868;SDS011;7004;48.206;16.402;2023-02-28T12:31:58;19.30;;;12.20;;
13868;SDS011;7004;48.206;16.402;2023-02-28T12:35:11;16.93;;;12.10;;
13868;SDS011;7004;48.206;16.402;2023-02-28T12:37:51;15.27;;;11.60;;
13868;SDS011;7004;48.206;16.402;2023-02-28T12:40:47;15.03;;;11.07;;
13868;SDS011;7004;48.206;16.402;2023-02-28T12:43:43;14.53;;;11.17;;
13868;SDS011;7004;48.206;16.402;2023-02-28T12:48:52;15.27;;;11.77;;
13868;SDS011;7004;48.206;16.402;2023-02-28T12:51:22;14.40;;;11.60;;
13868;SDS011;7004;48.206;16.402;2023-02-28T12:54:10;14.97;;;11.50;;
13868;SDS011;7004;48.206;16.402;2023-02-28T12:59:51;15.43;;;10.97;;
13868;SDS011;7004;48.206;16.402;2023-02-28T13:10:47;18.57;;;9.60;;
13868;SDS011;7004;48.206;16.402;2023-02-28T13:13:20;15.50;;;10.97;;
13868;SDS011;7004;48.206;16.402;2023-02-28T13:16:03;11.80;;;9.40;;
13868;SDS011;7004;48.206;16.402;2023-02-28T13:21:08;13.33;;;9.63;;
13868;SDS011;7004;48.206;16.402;2023-02-28T13:28:59;14.33;;;9.70;;
13868;SDS011;7004;48.206;16.402;2023-02-28T13:34:33;14.37;;;9.73;;
13868;SDS011;7004;48.206;16.402;2023-02-28T13:40:38;15.27;;;10.30;;
13868;SDS011;7004;48.206;16.402;2023-02-28T13:42:55;16.67;;;9.83;;
13868;SDS011;7004;48.206;16.402;2023-02-28T13:45:30;11.27;;;10.07;;
13868;SDS011;7004;48.206;16.402;2023-02-28T13:48:17;14.83;;;10.60;;
13868;SDS011;7004;48.206;16.402;2023-02-28T13:50:50;14.33;;;10.03;;
13868;SDS011;7004;48.206;16.402;2023-02-28T13:56:16;15.53;;;11.10;;
13868;SDS011;7004;48.206;16.402;2023-02-28T14:05:14;12.57;;;9.57;;
13868;SDS011;7004;48.206;16.402;2023-02-28T14:07:52;15.17;;;12.00;;
13868;SDS011;7004;48.206;16.402;2023-02-28T14:10:25;15.20;;;11.50;;
13868;SDS011;7004;48.206;16.402;2023-02-28T14:16:55;14.17;;;10.70;;
13868;SDS011;7004;48.206;16.402;2023-02-28T14:19:22;15.47;;;10.70;;
13868;SDS011;7004;48.206;16.402;2023-02-28T14:31:07;14.67;;;11.63;;
13868;SDS011;7004;48.206;16.402;2023-02-28T14:33:42;15.60;;;11.47;;
13868;SDS011;7004;48.206;16.402;2023-02-28T14:36:35;16.00;;;11.77;;
13868;SDS011;7004;48.206;16.402;2023-02-28T14:39:06;14.77;;;11.90;;
13868;SDS011;7004;48.206;16.402;2023-02-28T14:41:41;15.67;;;11.77;;
13868;SDS011;7004;48.206;16.402;2023-02-28T14:44:27;15.53;;;11.80;;
13868;SDS011;7004;48.206;16.402;2023-02-28T14:49:27;16.07;;;12.20;;
13868;SDS011;7004;48.206;16.402;2023-02-28T14:54:40;19.20;;;12.87;;
13868;SDS011;7004;48.206;16.402;2023-02-28T14:57:20;15.87;;;11.80;;
13868;SDS011;7004;48.206;16.402;2023-02-28T15:02:42;17.37;;;11.57;;
13868;SDS011;7004;48.206;16.402;2023-02-28T15:07:37;15.07;;;11.67;;
13868;SDS011;7004;48.206;16.402;2023-02-28T15:10:15;16.07;;;12.23;;
13868;SDS011;7004;48.206;16.402;2023-02-28T15:15:24;15.30;;;12.57;;
13868;SDS011;7004;48.206;16.402;2023-02-28T15:18:15;16.57;;;12.20;;
13868;SDS011;7004;48.206;16.402;2023-02-28T15:21:02;13.60;;;11.53;;
13868;SDS011;7004;48.206;16.402;2023-02-28T15:26:38;15.97;;;12.40;;
13868;SDS011;7004;48.206;16.402;2023-02-28T15:29:12;15.87;;;12.70;;
13868;SDS011;7004;48.206;16.402;2023-02-28T15:31:45;18.10;;;12.17;;
13868;SDS011;7004;48.206;16.402;2023-02-28T15:34:20;14.60;;;11.80;;
13868;SDS011;7004;48.206;16.402;2023-02-28T15:36:59;17.10;;;12.70;;
13868;SDS011;7004;48.206;16.402;2023-02-28T15:39:26;15.20;;;12.23;;
13868;SDS011;7004;48.206;16.402;2023-02-28T15:42:10;16.87;;;12.00;;
13868;SDS011;7004;48.206;16.402;2023-02-28T15:44:43;14.93;;;11.70;;
13868;SDS011;7004;48.206;16.402;2023-02-28T15:49:53;18.03;;;12.80;;
13868;SDS011;7004;48.206;16.402;2023-02-28T15:52:34;21.60;;;13.07;;
13868;SDS011;7004;48.206;16.402;2023-02-28T15:55:28;23.13;;;12.00;;
13868;SDS011;7004;48.206;16.402;2023-02-28T15:57:56;16.10;;;12.13;;
13868;SDS011;7004;48.206;16.402;2023-02-28T16:00:29;19.17;;;12.87;;
13868;SDS011;7004;48.206;16.402;2023-02-28T16:02:59;18.53;;;12.67;;
13868;SDS011;7004;48.206;16.402;2023-02-28T16:05:29;15.90;;;12.33;;
13868;SDS011;7004;48.206;16.402;2023-02-28T16:07:58;16.97;;;12.90;;
13868;SDS011;7004;48.206;16.402;2023-02-28T16:10:36;15.60;;;12.40;;
13868;SDS011;7004;48.206;16.402;2023-02-28T16:13:02;15.87;;;12.77;;
13868;SDS011;7004;48.206;16.402;2023-02-28T16:15:29;17.53;;;12.30;;
13868;SDS011;7004;48.206;16.402;2023-02-28T16:18:07;18.73;;;12.83;;
13868;SDS011;7004;48.206;16.402;2023-02-28T16:20:36;17.70;;;13.17;;
13868;SDS011;7004;48.206;16.402;2023-02-28T16:23:03;16.93;;;12.73;;
13868;SDS011;7004;48.206;16.402;2023-02-28T16:25:38;18.43;;;12.60;;
13868;SDS011;7004;48.206;16.402;2023-02-28T16:30:52;19.27;;;13.47;;
13868;SDS011;7004;48.206;16.402;2023-02-28T16:33:19;16.00;;;11.67;;
13868;SDS011;7004;48.206;16.402;2023-02-28T16:35:45;18.63;;;13.13;;
13868;SDS011;7004;48.206;16.402;2023-02-28T16:38:12;20.00;;;13.00;;
13868;SDS011;7004;48.206;16.402;2023-02-28T16:40:38;23.30;;;13.37;;
13868;SDS011;7004;48.206;16.402;2023-02-28T16:43:07;19.83;;;13.97;;
13868;SDS011;7004;48.206;16.402;2023-02-28T16:45:40;18.63;;;12.80;;
13868;SDS011;7004;48.206;16.402;2023-02-28T16:48:07;23.80;;;14.13;;
13868;SDS011;7004;48.206;16.402;2023-02-28T16:50:42;22.13;;;13.43;;
13868;SDS011;7004;48.206;16.402;2023-02-28T16:53:09;21.30;;;14.07;;
13868;SDS011;7004;48.206;16.402;2023-02-28T16:55:36;22.23;;;13.47;;
13868;SDS011;7004;48.206;16.402;2023-02-28T16:58:02;20.63;;;13.17;;
13868;SDS011;7004;48.206;16.402;2023-02-28T17:00:31;18.27;;;13.43;;
13868;SDS011;7004;48.206;16.402;2023-02-28T17:03:00;19.40;;;14.30;;
13868;SDS011;7004;48.206;16.402;2023-02-28T17:05:28;21.23;;;13.67;;
13868;SDS011;7004;48.206;16.402;2023-02-28T17:08:04;21.53;;;13.40;;
13868;SDS011;7004;48.206;16.402;2023-02-28T17:10:30;19.60;;;13.30;;
13868;SDS011;7004;48.206;16.402;2023-02-28T17:12:57;24.90;;;13.00;;
13868;SDS011;7004;48.206;16.402;2023-02-28T17:15:23;20.37;;;13.30;;
13868;SDS011;7004;48.206;16.402;2023-02-28T17:17:50;19.13;;;13.67;;
13868;SDS011;7004;48.206;16.402;2023-02-28T17:20:20;19.33;;;13.07;;
13868;SDS011;7004;48.206;16.402;2023-02-28T17:22:48;19.87;;;13.53;;
13868;SDS011;7004;48.206;16.402;2023-02-28T17:25:16;22.63;;;13.83;;
13868;SDS011;7004;48.206;16.402;2023-02-28T17:27:43;20.93;;;13.60;;
13868;SDS011;7004;48.206;16.402;2023-02-28T17:30:30;18.97;;;13.23;;
13868;SDS011;7004;48.206;16.402;2023-02-28T17:32:59;20.47;;;13.30;;
13868;SDS011;7004;48.206;16.402;2023-02-28T17:35:26;21.70;;;13.33;;
13868;SDS011;7004;48.206;16.402;2023-02-28T17:37:55;18.73;;;13.53;;
13868;SDS011;7004;48.206;16.402;2023-02-28T17:40:23;21.40;;;14.10;;
13868;SDS011;7004;48.206;16.402;2023-02-28T17:42:52;25.47;;;14.50;;
13868;SDS011;7004;48.206;16.402;2023-02-28T17:45:20;20.20;;;13.93;;